Time;durP1;ratioP1;P1;durP2;ratioP2;P2;SDS_P1;SDS_P2;PMS_P1;PMS_P2;Temp;Humidity;BMP_temperature;BMP_pressure;BME280_temperature;BME280_humidity;BME280_pressure;Samples;Min_cycle;Max_cycle;Signal;HPM_P1;HPM_P2
2022/02/27 00:01:20;;;;;;;6.03;3.20;;;;;;;;;;5073822;28;20800;-93
2022/02/27 00:03:47;;;;;;;11.43;3.60;;;;;;;;;;5073672;28;20443;-93
2022/02/27 00:06:14;;;;;;;8.33;3.90;;;;;;;;;;5073888;28;20450;-91
2022/02/27 00:08:41;;;;;;;11.73;3.90;;;;;;;;;;5073057;28;20450;-92
2022/02/27 00:11:08;;;;;;;15.03;3.70;;;;;;;;;;5073691;28;20456;-93
2022/02/27 00:13:37;;;;;;;9.60;3.53;;;;;;;;;;5073389;28;20972;-91
2022/02/27 00:16:04;;;;;;;11.40;3.77;;;;;;;;;;5075326;28;20438;-92
2022/02/27 00:18:31;;;;;;;9.57;3.43;;;;;;;;;;5077256;28;20847;-92
2022/02/27 00:20:58;;;;;;;8.10;3.87;;;;;;;;;;5077584;28;20971;-92
2022/02/27 00:23:25;;;;;;;9.23;3.80;;;;;;;;;;5076735;28;20434;-92
2022/02/27 00:25:53;;;;;;;7.90;4.50;;;;;;;;;;5077309;28;20434;-90
2022/02/27 00:28:20;;;;;;;8.83;3.60;;;;;;;;;;5077622;28;20451;-90
2022/02/27 00:30:48;;;;;;;9.20;3.80;;;-0.40;99.90;;;;;;5077441;28;20481;-91
2022/02/27 00:33:15;;;;;;;10.20;4.10;;;;;;;;;;5075487;28;20474;-92
2022/02/27 00:35:42;;;;;;;10.50;3.93;;;;;;;;;;5077485;28;20441;-93
2022/02/27 00:38:09;;;;;;;19.13;6.63;;;;;;;;;;5076216;28;20498;-93
2022/02/27 00:40:38;;;;;;;21.03;10.10;;;;;;;;;;5076726;28;20455;-91
2022/02/27 00:43:05;;;;;;;15.23;7.37;;;;;;;;;;5077111;28;20466;-88
2022/02/27 00:45:32;;;;;;;22.40;10.20;;;;;;;;;;5076871;28;20434;-91
2022/02/27 00:48:00;;;;;;;13.40;6.50;;;-0.50;99.90;;;;;;5076919;28;20472;-91
2022/02/27 00:50:28;;;;;;;9.37;5.07;;;;;;;;;;5074088;28;20468;-91
2022/02/27 00:52:55;;;;;;;7.07;4.20;;;;;;;;;;5076216;28;20456;-93
2022/02/27 00:55:22;;;;;;;9.47;3.77;;;;;;;;;;5076943;28;20431;-91
2022/02/27 00:57:49;;;;;;;10.57;4.43;;;;;;;;;;5076301;28;20488;-91
2022/02/27 01:00:16;;;;;;;13.50;4.00;;;-0.50;99.90;;;;;;5076610;28;20836;-91
2022/02/27 01:02:43;;;;;;;13.97;4.27;;;;;;;;;;5076744;28;20430;-91
2022/02/27 01:05:12;;;;;;;9.60;3.33;;;;;;;;;;5076704;28;20464;-91
2022/02/27 01:07:39;;;;;;;12.30;3.17;;;;;;;;;;5073614;28;20460;-92
2022/02/27 01:10:07;;;;;;;9.23;3.13;;;0.70;99.90;;;;;;5076850;28;20434;-91
2022/02/27 01:12:34;;;;;;;4.00;2.10;;;;;;;;;;5076051;28;20453;-92
2022/02/27 01:15:01;;;;;;;8.17;3.80;;;;;;;;;;5076609;28;20433;-91
2022/02/27 01:17:28;;;;;;;4.00;1.80;;;;;;;;;;5076459;28;20492;-93
2022/02/27 01:19:56;;;;;;;6.07;2.50;;;;;;;;;;5076506;28;20445;-90
2022/02/27 01:22:24;;;;;;;11.03;2.87;;;;;;;;;;5075712;28;20457;-90
2022/02/27 01:24:52;;;;;;;5.47;2.20;;;;;;;;;;5075798;28;20479;-91
2022/02/27 01:27:19;;;;;;;7.37;2.23;;;;;;;;;;5075012;28;20821;-92
2022/02/27 01:29:46;;;;;;;6.13;2.30;;;;;;;;;;5077323;28;20477;-91
2022/02/27 01:32:13;;;;;;;7.10;2.80;;;;;;;;;;5075728;28;20468;-92
2022/02/27 01:34:40;;;;;;;4.43;2.40;;;;;;;;;;5076056;28;20457;-92
2022/02/27 01:37:07;;;;;;;4.30;2.40;;;;;;;;;;5075855;28;20814;-94
2022/02/27 01:39:36;;;;;;;5.93;1.80;;;0.90;99.90;;;;;;5074900;28;20937;-91
2022/02/27 01:42:03;;;;;;;3.17;2.13;;;;;;;;;;5075555;28;20442;-94
2022/02/27 01:44:30;;;;;;;6.60;2.63;;;;;;;;;;5075784;28;20453;-91
2022/02/27 01:46:58;;;;;;;7.23;2.63;;;1.00;99.90;;;;;;5075973;28;20454;-93
2022/02/27 01:49:25;;;;;;;6.83;2.83;;;;;;;;;;5075519;28;20457;-92
2022/02/27 01:51:53;;;;;;;10.93;2.97;;;;;;;;;;5076155;28;20446;-92
2022/02/27 01:54:20;;;;;;;5.20;2.30;;;;;;;;;;5074994;28;20544;-93
2022/02/27 01:56:49;;;;;;;4.17;2.13;;;;;;;;;;5075665;28;20438;-92
2022/02/27 01:59:16;;;;;;;7.30;2.90;;;;;;;;;;5072863;28;20512;-94
2022/02/27 02:01:46;;;;;;;8.90;2.40;;;0.90;99.90;;;;;;5075689;28;20551;-91
2022/02/27 02:04:13;;;;;;;5.90;2.50;;;;;;;;;;5075558;28;20473;-91
2022/02/27 02:06:43;;;;;;;5.97;2.17;;;0.80;99.90;;;;;;5075381;28;20436;-92
2022/02/27 02:09:13;;;;;;;10.07;2.77;;;;;;;;;;5074548;28;20442;-93
2022/02/27 02:11:41;;;;;;;6.90;2.23;;;;;;;;;;5074934;28;20837;-92
2022/02/27 02:14:09;;;;;;;8.47;3.30;;;;;;;;;;5076081;28;20458;-90
2022/02/27 02:16:41;;;;;;;4.87;2.20;;;0.90;99.90;;;;;;5075833;28;21139;-90
2022/02/27 02:19:08;;;;;;;4.83;2.30;;;;;;;;;;5075035;28;20485;-92
2022/02/27 02:21:46;;;;;;;10.63;2.73;;;0.90;99.90;;;;;;5075158;28;20449;-90
2022/02/27 02:24:17;;;;;;;6.97;2.43;;;0.90;99.90;;;;;;5073614;28;20954;-91
2022/02/27 02:26:48;;;;;;;7.10;3.00;;;0.90;99.90;;;;;;5074338;28;20503;-91
2022/02/27 02:29:19;;;;;;;9.80;2.57;;;0.90;99.90;;;;;;5073616;28;20947;-91
2022/02/27 02:31:48;;;;;;;4.00;2.10;;;0.80;99.90;;;;;;5074232;28;20469;-92
2022/02/27 02:34:19;;;;;;;5.20;2.03;;;0.70;99.90;;;;;;5070273;28;20913;-91
2022/02/27 02:36:58;;;;;;;13.90;3.53;;;;;;;;;;5074282;28;20537;-89
2022/02/27 02:39:27;;;;;;;4.93;2.70;;;0.80;99.90;;;;;;5073124;28;20483;-90
2022/02/27 02:41:54;;;;;;;10.67;2.80;;;;;;;;;;5074953;28;20450;-92
2022/02/27 02:44:21;;;;;;;6.30;3.13;;;;;;;;;;5074832;28;20438;-91
2022/02/27 02:46:49;;;;;;;7.77;3.10;;;;;;;;;;5075812;28;20454;-92
2022/02/27 02:49:17;;;;;;;5.37;2.60;;;0.60;99.90;;;;;;5074666;28;20438;-93
2022/02/27 02:51:46;;;;;;;4.40;2.53;;;;;;;;;;5071506;28;20464;-93
2022/02/27 02:54:14;;;;;;;9.77;3.10;;;;;;;;;;5073440;28;20462;-92
2022/02/27 02:56:42;;;;;;;13.37;2.70;;;0.40;99.90;;;;;;5074012;28;20432;-92
2022/02/27 02:59:13;;;;;;;8.83;2.77;;;0.40;99.90;;;;;;5072463;28;20481;-90
2022/02/27 03:01:40;;;;;;;3.70;2.60;;;;;;;;;;5073927;28;20454;-90
2022/02/27 03:04:07;;;;;;;6.80;3.00;;;;;;;;;;5073980;28;20468;-89
2022/02/27 03:06:35;;;;;;;7.87;3.03;;;;;;;;;;5073669;28;20450;-88
2022/02/27 03:09:02;;;;;;;6.40;2.53;;;;;;;;;;5073014;28;20815;-88
2022/02/27 03:11:30;;;;;;;11.47;3.10;;;;;;;;;;5074004;28;20945;-91
2022/02/27 03:14:00;;;;;;;6.33;2.93;;;;;;;;;;5073670;28;20453;-88
2022/02/27 03:16:28;;;;;;;10.53;3.00;;;;;;;;;;5074791;28;20952;-90
2022/02/27 03:18:55;;;;;;;8.53;3.10;;;;;;;;;;5073959;28;20976;-92
2022/02/27 03:21:22;;;;;;;5.73;3.27;;;;;;;;;;5074226;28;20438;-91
2022/02/27 03:23:52;;;;;;;7.80;3.63;;;;;;;;;;5074759;28;20449;-92
2022/02/27 03:26:19;;;;;;;8.13;3.03;;;;;;;;;;5075382;28;20465;-91
2022/02/27 03:28:47;;;;;;;7.00;2.50;;;0.20;99.90;;;;;;5074038;28;20447;-92
2022/02/27 03:31:15;;;;;;;5.33;3.03;;;;;;;;;;5073721;28;20473;-91
2022/02/27 03:33:42;;;;;;;8.10;3.03;;;;;;;;;;5074013;28;20472;-92
2022/02/27 03:36:09;;;;;;;10.23;3.07;;;;;;;;;;5073814;28;20433;-91
2022/02/27 03:38:36;;;;;;;7.33;3.10;;;;;;;;;;5074108;28;20564;-93
2022/02/27 03:41:03;;;;;;;6.93;3.40;;;;;;;;;;5073781;28;20787;-89
2022/02/27 03:43:30;;;;;;;8.43;3.03;;;;;;;;;;5074240;28;20441;-90
2022/02/27 03:45:59;;;;;;;6.10;2.63;;;0.40;99.90;;;;;;5074972;28;20461;-92
2022/02/27 03:48:26;;;;;;;11.47;3.47;;;;;;;;;;5074085;28;20461;-92
2022/02/27 03:50:53;;;;;;;13.67;3.17;;;;;;;;;;5077079;28;20438;-92
2022/02/27 03:53:22;;;;;;;9.40;3.20;;;;;;;;;;5076966;28;20426;-92
2022/02/27 03:55:49;;;;;;;10.60;3.50;;;;;;;;;;5078986;28;20544;-92
2022/02/27 03:58:16;;;;;;;9.37;3.67;;;;;;;;;;5078729;28;20486;-91
2022/02/27 04:00:43;;;;;;;8.77;3.00;;;;;;;;;;5077702;28;20426;-92
2022/02/27 04:03:12;;;;;;;5.03;2.60;;;;;;;;;;5077606;28;20918;-91
2022/02/27 04:05:39;;;;;;;7.07;4.33;;;;;;;;;;5077756;28;20433;-92
2022/02/27 04:08:06;;;;;;;8.63;3.20;;;;;;;;;;5077124;28;20437;-91
2022/02/27 04:10:33;;;;;;;5.63;3.00;;;;;;;;;;5073752;28;20476;-92
2022/02/27 04:13:00;;;;;;;7.83;3.60;;;;;;;;;;5077823;28;20465;-91
2022/02/27 04:15:28;;;;;;;5.53;2.97;;;;;;;;;;5077337;28;20441;-90
2022/02/27 04:17:55;;;;;;;5.17;2.90;;;;;;;;;;5078503;28;20449;-91
2022/02/27 04:20:23;;;;;;;5.57;3.03;;;0.20;99.90;;;;;;5077466;28;20468;-90
2022/02/27 04:22:50;;;;;;;7.40;2.80;;;;;;;;;;5076177;28;20515;-90
2022/02/27 04:25:17;;;;;;;8.60;2.93;;;;;;;;;;5077077;28;20963;-92
2022/02/27 04:27:45;;;;;;;6.43;3.70;;;;;;;;;;5075988;28;20445;-91
2022/02/27 04:30:12;;;;;;;5.87;2.80;;;;;;;;;;5076912;28;20450;-93
2022/02/27 04:32:39;;;;;;;5.50;2.97;;;;;;;;;;5077073;28;20462;-89
2022/02/27 04:35:07;;;;;;;8.87;3.07;;;-0.70;99.90;;;;;;5077193;28;20434;-92
2022/02/27 04:37:36;;;;;;;5.77;3.37;;;-0.60;99.90;;;;;;5076164;28;20464;-91
2022/02/27 04:40:03;;;;;;;6.40;3.43;;;;;;;;;;5077827;28;20492;-92
2022/02/27 04:42:31;;;;;;;5.30;2.67;;;;;;;;;;5077854;28;20458;-88
2022/02/27 04:44:58;;;;;;;11.53;4.20;;;;;;;;;;5077668;28;20445;-91
2022/02/27 04:47:25;;;;;;;7.30;3.47;;;;;;;;;;5076705;28;20434;-91
2022/02/27 04:49:52;;;;;;;11.90;3.10;;;;;;;;;;5076766;28;20442;-91
2022/02/27 04:52:19;;;;;;;5.00;2.33;;;;;;;;;;5076458;28;20796;-91
2022/02/27 04:54:47;;;;;;;8.10;3.20;;;-1.00;99.90;;;;;;5075845;28;20477;-90
2022/02/27 04:57:14;;;;;;;5.80;2.70;;;;;;;;;;5076944;28;20442;-91
2022/02/27 04:59:42;;;;;;;10.20;3.77;;;;;;;;;;5076734;28;20547;-90
2022/02/27 05:02:09;;;;;;;4.33;3.07;;;;;;;;;;5075578;28;20464;-90
2022/02/27 05:04:36;;;;;;;6.97;3.37;;;;;;;;;;5076651;28;20438;-92
2022/02/27 05:07:03;;;;;;;10.37;3.17;;;;;;;;;;5076571;28;20442;-89
2022/02/27 05:09:30;;;;;;;4.30;3.07;;;;;;;;;;5076129;28;20438;-90
2022/02/27 05:11:58;;;;;;;6.50;3.17;;;-1.30;99.90;;;;;;5076779;28;21098;-90
2022/02/27 05:14:26;;;;;;;12.20;3.50;;;;;;;;;;5076365;28;20445;-90
2022/02/27 05:16:53;;;;;;;8.60;4.27;;;-1.30;99.90;;;;;;5076216;28;20544;-90
2022/02/27 05:19:21;;;;;;;4.73;3.30;;;;;;;;;;5076269;28;21016;-88
2022/02/27 05:21:48;;;;;;;10.60;3.47;;;;;;;;;;5075828;28;20890;-89
2022/02/27 05:24:15;;;;;;;6.43;3.57;;;;;;;;;;5076072;28;20463;-89
2022/02/27 05:26:42;;;;;;;8.17;3.67;;;;;;;;;;5075974;28;20476;-93
2022/02/27 05:29:10;;;;;;;6.40;3.60;;;-1.50;99.90;;;;;;5076511;28;20444;-90
2022/02/27 05:31:37;;;;;;;9.40;4.03;;;;;;;;;;5075749;28;20485;-90
2022/02/27 05:34:05;;;;;;;8.83;3.60;;;;;;;;;;5077120;28;20477;-91
2022/02/27 05:36:32;;;;;;;9.10;4.40;;;;;;;;;;5075934;28;20538;-91
2022/02/27 05:39:01;;;;;;;10.37;4.17;;;;;;;;;;5074984;28;20481;-91
2022/02/27 05:41:28;;;;;;;5.93;3.40;;;;;;;;;;5076196;28;20462;-91
2022/02/27 05:43:55;;;;;;;9.43;3.67;;;;;;;;;;5075785;28;20449;-90
2022/02/27 05:46:23;;;;;;;7.77;4.23;;;-1.70;99.90;;;;;;5076148;28;20450;-91
2022/02/27 05:48:50;;;;;;;7.20;3.57;;;;;;;;;;5075544;28;20446;-90
2022/02/27 05:51:17;;;;;;;5.43;3.60;;;;;;;;;;5075929;28;20707;-92
2022/02/27 05:53:45;;;;;;;7.33;4.13;;;;;;;;;;5075167;28;20444;-90
2022/02/27 05:56:14;;;;;;;11.60;3.73;;;;;;;;;;5075282;28;20434;-92
2022/02/27 05:58:41;;;;;;;6.93;3.47;;;;;;;;;;5075663;28;20476;-91
2022/02/27 06:01:08;;;;;;;7.53;3.57;;;;;;;;;;5075345;28;20931;-92
2022/02/27 06:03:36;;;;;;;10.50;4.17;;;-1.80;99.90;;;;;;5075883;28;20449;-93
2022/02/27 06:06:03;;;;;;;9.07;4.27;;;;;;;;;;5075719;28;20800;-91
2022/02/27 06:08:30;;;;;;;8.53;3.67;;;;;;;;;;5074881;28;20449;-91
2022/02/27 06:10:58;;;;;;;8.17;4.00;;;;;;;;;;5075575;28;20713;-90
2022/02/27 06:13:25;;;;;;;9.03;3.60;;;;;;;;;;5075528;28;21012;-92
2022/02/27 06:15:52;;;;;;;6.70;3.60;;;;;;;;;;5076773;28;20547;-91
2022/02/27 06:18:19;;;;;;;13.03;3.00;;;;;;;;;;5075487;28;20511;-91
2022/02/27 06:20:48;;;;;;;5.00;3.50;;;;;;;;;;5075353;28;20450;-92
2022/02/27 06:23:15;;;;;;;8.57;3.73;;;;;;;;;;5074781;28;20446;-92
2022/02/27 06:25:42;;;;;;;5.27;3.60;;;;;;;;;;5074955;28;20422;-92
2022/02/27 06:28:09;;;;;;;6.03;4.30;;;;;;;;;;5075084;28;20439;-90
2022/02/27 06:30:36;;;;;;;11.73;4.20;;;;;;;;;;5075231;28;20482;-92
2022/02/27 06:33:04;;;;;;;7.13;3.90;;;;;;;;;;5075133;28;20456;-90
2022/02/27 06:35:31;;;;;;;6.63;3.40;;;;;;;;;;5074971;28;20437;-89
2022/02/27 06:37:59;;;;;;;9.67;4.70;;;;;;;;;;5074303;28;20453;-91
2022/02/27 06:40:27;;;;;;;8.60;3.67;;;;;;;;;;5074896;28;20490;-91
2022/02/27 06:42:54;;;;;;;7.90;4.00;;;;;;;;;;5074847;28;20437;-92
2022/02/27 06:45:21;;;;;;;6.03;3.90;;;;;;;;;;5076251;28;20925;-90
2022/02/27 06:47:48;;;;;;;10.53;4.40;;;;;;;;;;5074520;28;20432;-92
2022/02/27 06:50:16;;;;;;;9.40;3.97;;;;;;;;;;5074647;28;20449;-91
2022/02/27 06:52:43;;;;;;;6.23;4.53;;;;;;;;;;5073781;28;20442;-91
2022/02/27 06:55:15;;;;;;;10.93;4.13;;;;;;;;;;5074617;28;20440;-91
2022/02/27 06:57:42;;;;;;;7.57;4.00;;;;;;;;;;5074679;28;20487;-93
2022/02/27 07:00:11;;;;;;;10.67;4.10;;;0.50;99.90;;;;;;5075121;28;20501;-90
2022/02/27 07:02:39;;;;;;;9.27;4.47;;;;;;;;;;5074654;28;20481;-90
2022/02/27 07:05:06;;;;;;;8.70;4.17;;;0.60;99.90;;;;;;5074579;28;20457;-90
2022/02/27 07:07:34;;;;;;;7.60;4.10;;;;;;;;;;5069501;28;20495;-91
2022/02/27 07:10:01;;;;;;;5.57;4.50;;;;;;;;;;5074032;28;20449;-90
2022/02/27 07:12:30;;;;;;;9.43;5.10;;;0.40;99.90;;;;;;5074070;28;20453;-92
2022/02/27 07:14:57;;;;;;;7.77;5.07;;;;;;;;;;5071235;28;20461;-92
2022/02/27 07:17:24;;;;;;;7.80;4.50;;;;;;;;;;5074036;28;20448;-92
2022/02/27 07:19:51;;;;;;;11.60;4.67;;;;;;;;;;5074488;28;20480;-93
2022/02/27 07:22:18;;;;;;;8.40;4.33;;;;;;;;;;5091249;22;20553;-92
2022/02/27 07:24:46;;;;;;;9.03;4.63;;;;;;;;;;5033829;28;20456;-93
2022/02/27 07:27:13;;;;;;;7.43;4.53;;;;;;;;;;5034685;28;20939;-93
2022/02/27 07:29:51;;;;;;;6.50;5.10;;;;;;;;;;5036554;28;20499;-93
2022/02/27 07:32:18;;;;;;;8.27;4.90;;;;;;;;;;5035260;28;20534;-92
2022/02/27 07:34:45;;;;;;;10.20;5.03;;;;;;;;;;5034605;28;20452;-91
2022/02/27 07:37:13;;;;;;;7.83;4.77;;;;;;;;;;5035698;28;20885;-93
2022/02/27 07:39:40;;;;;;;6.37;5.13;;;;;;;;;;5032366;28;21070;-90
2022/02/27 07:42:10;;;;;;;8.30;5.37;;;;;;;;;;5034337;28;20462;-92
2022/02/27 07:44:37;;;;;;;7.80;5.27;;;;;;;;;;5034568;28;20456;-92
2022/02/27 07:47:06;;;;;;;9.23;5.50;;;;;;;;;;5034722;28;20831;-91
2022/02/27 07:49:33;;;;;;;6.73;4.40;;;;;;;;;;5034936;28;20451;-93
2022/02/27 07:52:01;;;;;;;11.53;4.70;;;;;;;;;;5033857;28;20558;-91
2022/02/27 07:54:28;;;;;;;9.17;6.20;;;;;;;;;;5033623;28;20451;-94
2022/02/27 07:56:55;;;;;;;9.33;5.00;;;;;;;;;;5035833;28;20534;-94
2022/02/27 07:59:22;;;;;;;8.43;5.13;;;;;;;;;;5035187;28;20483;-94
2022/02/27 08:01:49;;;;;;;8.17;4.80;;;;;;;;;;5035153;28;20462;-95
2022/02/27 08:04:18;;;;;;;10.70;5.80;;;;;;;;;;5036203;28;20473;-95
2022/02/27 08:06:45;;;;;;;7.83;4.63;;;;;;;;;;5035550;28;20456;-94
2022/02/27 08:09:13;;;;;;;7.23;5.03;;;;;;;;;;5034362;28;20550;-94
2022/02/27 08:11:40;;;;;;;9.33;5.03;;;;;;;;;;5034747;28;20935;-91
2022/02/27 08:14:07;;;;;;;8.93;5.10;;;;;;;;;;5034639;28;20450;-93
2022/02/27 08:16:34;;;;;;;7.93;5.20;;;;;;;;;;5034405;28;20497;-95
2022/02/27 08:19:02;;;;;;;6.00;4.10;;;;;;;;;;5035784;28;20455;-91
2022/02/27 08:21:32;;;;;;;15.83;5.00;;;;;;;;;;5034773;28;20788;-95
2022/02/27 08:23:59;;;;;;;6.83;5.00;;;;;;;;;;5030796;28;20486;-92
2022/02/27 08:26:26;;;;;;;7.47;4.20;;;;;;;;;;5065393;22;20456;-93
2022/02/27 08:28:53;;;;;;;6.80;5.10;;;;;;;;;;5054013;28;20464;-90
2022/02/27 08:31:20;;;;;;;9.50;5.30;;;;;;;;;;5061389;28;20477;-93
2022/02/27 08:33:48;;;;;;;6.53;4.47;;;;;;;;;;5076097;28;20480;-92
2022/02/27 08:36:17;;;;;;;7.23;3.70;;;;;;;;;;5073046;28;20456;-91
2022/02/27 08:38:47;;;;;;;5.97;4.30;;;;;;;;;;5076441;28;20473;-93
2022/02/27 08:41:15;;;;;;;8.57;4.90;;;;;;;;;;5076146;28;21161;-90
2022/02/27 08:43:42;;;;;;;8.33;4.60;;;;;;;;;;5077452;28;20812;-91
2022/02/27 08:46:09;;;;;;;6.03;4.47;;;;;;;;;;5078092;28;20931;-93
2022/02/27 08:48:40;;;;;;;6.17;4.83;;;7.10;99.90;;;;;;5094046;28;20430;-95
2022/02/27 08:51:08;;;;;;;8.77;4.67;;;;;;;;;;5092809;28;20449;-95
2022/02/27 08:56:18;;;;;;;9.33;5.87;;;;;;;;;;5092759;28;20441;-95
2022/02/27 09:01:28;;;;;;;7.87;5.30;;;;;;;;;;5093606;28;20489;-95
2022/02/27 09:04:01;;;;;;;8.73;5.37;;;;;;;;;;5093752;28;20589;-95
2022/02/27 09:06:29;;;;;;;6.30;4.27;;;;;;;;;;5093025;28;20429;-94
2022/02/27 09:11:39;;;;;;;7.10;5.00;;;;;;;;;;5092859;28;20433;-95
2022/02/27 09:14:06;;;;;;;8.40;5.53;;;;;;;;;;5090365;28;20433;-93
2022/02/27 09:16:34;;;;;;;5.27;4.27;;;;;;;;;;5088267;28;20491;-95
2022/02/27 09:19:06;;;;;;;5.87;4.80;;;;;;;;;;5092028;28;20477;-95
2022/02/27 09:21:33;;;;;;;6.87;4.80;;;;;;;;;;5081879;28;20580;-92
2022/02/27 09:24:01;;;;;;;6.17;4.80;;;;;;;;;;5077533;28;20434;-90
2022/02/27 09:26:28;;;;;;;10.60;5.17;;;;;;;;;;5067944;28;20456;-91
2022/02/27 09:28:56;;;;;;;5.60;4.87;;;;;;;;;;5077398;28;20434;-94
2022/02/27 09:31:32;;;;;;;5.83;4.40;;;;;;;;;;5082851;28;20480;-93
2022/02/27 09:33:59;;;;;;;3.73;3.33;;;;;;;;;;5077849;28;20528;-92
2022/02/27 09:36:26;;;;;;;5.80;3.80;;;;;;;;;;5077196;28;20947;-90
2022/02/27 09:38:54;;;;;;;4.20;3.80;;;;;;;;;;5073763;28;20507;-88
2022/02/27 09:41:21;;;;;;;6.93;4.50;;;;;;;;;;5077583;28;20520;-90
2022/02/27 09:43:54;;;;;;;8.40;4.07;;;8.20;96.30;;;;;;5075333;28;20469;-88
2022/02/27 09:46:23;;;;;;;8.67;3.80;;;8.80;95.00;;;;;;5072178;28;20437;-89
2022/02/27 09:48:50;;;;;;;5.50;3.67;;;8.60;94.50;;;;;;5071959;28;20821;-88
2022/02/27 09:51:17;;;;;;;6.93;4.10;;;;;;;;;;5074963;28;20540;-89
2022/02/27 09:53:44;;;;;;;3.10;2.37;;;;;;;;;;5074064;28;20438;-88
2022/02/27 09:56:12;;;;;;;5.63;3.17;;;;;;;;;;5074805;28;20446;-88
2022/02/27 09:58:39;;;;;;;5.27;3.23;;;9.40;92.80;;;;;;5074607;28;20438;-88
2022/02/27 10:01:07;;;;;;;3.63;2.57;;;;;;;;;;5074516;28;20489;-88
2022/02/27 10:03:35;;;;;;;4.77;2.60;;;;;;;;;;5074657;28;20445;-89
2022/02/27 10:06:05;;;;;;;3.70;2.60;;;9.70;91.80;;;;;;5074828;28;20786;-89
2022/02/27 10:08:40;;;;;;;14.93;2.97;;;8.00;91.50;;;;;;5074039;28;20479;-90
2022/02/27 10:11:08;;;;;;;5.90;2.90;;;;;;;;;;5075156;28;20453;-89
2022/02/27 10:13:36;;;;;;;4.93;2.60;;;6.70;94.50;;;;;;5075299;28;20445;-89
2022/02/27 10:16:08;;;;;;;3.63;2.60;;;7.60;92.60;;;;;;5075238;28;20453;-88
2022/02/27 10:18:41;;;;;;;4.00;2.70;;;6.80;92.30;;;;;;5075010;28;20445;-91
2022/02/27 10:21:19;;;;;;;3.73;2.50;;;7.10;92.60;;;;;;5075591;28;20592;-91
2022/02/27 10:23:56;;;;;;;6.90;3.33;;;7.70;92.40;;;;;;5075848;28;20929;-89
2022/02/27 10:26:23;;;;;;;4.10;3.00;;;;;;;;;;5076398;28;20445;-91
2022/02/27 10:29:09;;;;;;;4.60;3.10;;;9.10;91.30;;;;;;5074717;28;20448;-91
2022/02/27 10:31:36;;;;;;;5.93;3.10;;;;;;;;;;5074649;28;20442;-93
2022/02/27 10:34:18;;;;;;;4.27;3.20;;;9.60;90.50;;;;;;5074755;28;20960;-90
2022/02/27 10:36:55;;;;;;;3.67;3.17;;;10.30;88.90;;;;;;5074498;28;20449;-90
2022/02/27 10:39:29;;;;;;;4.07;2.00;;;10.40;86.20;;;;;;5075004;28;20483;-90
2022/02/27 10:42:06;;;;;;;4.00;3.00;;;9.80;88.10;;;;;;5075563;28;20477;-89
2022/02/27 10:44:33;;;;;;;2.90;2.57;;;;;;;;;;5074628;28;20452;-90
2022/02/27 10:47:17;;;;;;;3.40;3.00;;;9.10;90.10;;;;;;5069087;28;20446;-90
2022/02/27 10:49:49;;;;;;;3.13;2.27;;;9.90;86.30;;;;;;5073869;28;20454;-88
2022/02/27 10:52:21;;;;;;;6.07;2.90;;;9.70;84.70;;;;;;5071011;28;20438;-90
2022/02/27 10:54:50;;;;;;;3.43;2.03;;;9.40;99.90;;;;;;5073242;28;20929;-91
2022/02/27 10:57:28;;;;;;;3.43;2.27;;;10.10;99.90;;;;;;5074093;28;20453;-90
2022/02/27 10:59:55;;;;;;;2.70;2.27;;;;;;;;;;5067614;28;20437;-91
2022/02/27 11:02:24;;;;;;;3.53;2.40;;;9.50;80.60;;;;;;5074341;28;20933;-91
2022/02/27 11:04:52;;;;;;;5.20;2.40;;;9.90;79.90;;;;;;5074563;28;20442;-93
2022/02/27 11:07:19;;;;;;;3.70;2.13;;;;;;;;;;5074415;28;20453;-92
2022/02/27 11:09:46;;;;;;;3.23;2.00;;;;;;;;;;5069588;28;20430;-90
2022/02/27 11:12:14;;;;;;;3.57;2.30;;;9.70;79.20;;;;;;5074233;28;20460;-92
2022/02/27 11:14:43;;;;;;;3.20;2.10;;;;;;;;;;5071399;28;20484;-91
2022/02/27 11:17:11;;;;;;;2.73;1.80;;;9.80;76.20;;;;;;5073401;28;20824;-91
2022/02/27 11:19:39;;;;;;;4.17;1.83;;;;;;;;;;5070964;28;20446;-93
2022/02/27 11:22:10;;;;;;;2.97;2.40;;;10.50;96.80;;;;;;5070016;28;20493;-91
2022/02/27 11:24:38;;;;;;;3.17;2.33;;;;;;;;;;5072962;28;20491;-90
2022/02/27 11:27:06;;;;;;;3.83;2.13;;;10.00;75.30;;;;;;5073528;28;20481;-93
2022/02/27 11:29:34;;;;;;;2.07;1.87;;;9.90;75.00;;;;;;5074043;28;20960;-92
2022/02/27 11:32:01;;;;;;;3.77;2.53;;;;;;;;;;5073679;28;20453;-90
2022/02/27 11:34:30;;;;;;;4.70;2.47;;;9.90;76.40;;;;;;5074081;28;20438;-91
2022/02/27 11:36:57;;;;;;;3.47;2.53;;;;;;;;;;5073828;28;21017;-91
2022/02/27 11:42:11;;;;;;;3.17;1.90;;;;;;;;;;5073806;28;20479;-93
2022/02/27 11:44:39;;;;;;;3.00;2.33;;;10.10;74.30;;;;;;5070605;28;20941;-93
2022/02/27 11:47:08;;;;;;;2.97;2.07;;;10.40;74.10;;;;;;5073652;28;20453;-92
2022/02/27 11:49:39;;;;;;;5.27;2.67;;;9.60;75.80;;;;;;5073672;28;20484;-92
2022/02/27 11:52:10;;;;;;;3.90;2.70;;;9.40;77.60;;;;;;5069394;28;20438;-93
2022/02/27 11:54:53;;;;;;;3.33;3.00;;;9.60;77.30;;;;;;5067223;28;20465;-91
2022/02/27 11:57:22;;;;;;;3.67;2.90;;;9.40;79.10;;;;;;5069370;28;20830;-93
2022/02/27 12:00:02;;;;;;;4.60;3.10;;;9.70;78.70;;;;;;5073281;28;20460;-92
2022/02/27 12:02:36;;;;;;;3.67;2.60;;;10.10;76.70;;;;;;5073309;28;20577;-93
2022/02/27 12:05:05;;;;;;;3.07;2.57;;;9.90;77.80;;;;;;5068382;28;20499;-92
2022/02/27 12:08:06;;;;;;;3.07;2.53;;;9.00;79.70;;;;;;5072621;28;20460;-90
2022/02/27 12:10:35;;;;;;;3.27;2.67;;;9.30;79.70;;;;;;5069210;28;20453;-93
2022/02/27 12:13:02;;;;;;;5.67;2.50;;;;;;;;;;5074310;28;20456;-91
2022/02/27 12:15:32;;;;;;;4.20;3.03;;;8.60;82.00;;;;;;5078319;28;20454;-93
2022/02/27 12:18:02;;;;;;;5.73;3.63;;;8.80;83.00;;;;;;5078333;28;20460;-92
2022/02/27 12:20:51;;;;;;;2.60;2.30;;;8.90;99.90;;;;;;5074698;28;20457;-94
2022/02/27 12:23:44;;;;;;;3.57;3.10;;;9.30;81.80;;;;;;5076993;28;20525;-92
2022/02/27 12:26:32;;;;;;;4.07;3.03;;;9.40;81.00;;;;;;5077878;28;20447;-93
2022/02/27 12:29:01;;;;;;;2.90;2.40;;;;;;;;;;5079747;28;20456;-93
2022/02/27 12:31:32;;;;;;;5.37;2.97;;;10.20;77.70;;;;;;5077338;28;20434;-92
2022/02/27 12:34:00;;;;;;;4.30;3.17;;;9.70;78.10;;;;;;5074607;28;20476;-91
2022/02/27 12:36:33;;;;;;;3.10;2.83;;;9.60;78.50;;;;;;5073200;28;20448;-92
2022/02/27 12:39:04;;;;;;;6.80;3.17;;;9.90;78.70;;;;;;5072021;28;20449;-94
2022/02/27 12:41:33;;;;;;;5.07;3.30;;;9.80;78.40;;;;;;5079594;28;20515;-92
2022/02/27 12:44:02;;;;;;;5.90;3.47;;;10.40;76.80;;;;;;5074392;28;20430;-91
2022/02/27 12:46:29;;;;;;;3.03;2.70;;;;;;;;;;5074008;28;20925;-90
2022/02/27 12:51:49;;;;;;;5.23;3.20;;;;;;;;;;5028604;28;20434;-89
2022/02/27 12:54:19;;;;;;;3.43;2.87;;;9.00;79.20;;;;;;5072760;28;20461;-91
2022/02/27 12:56:54;;;;;;;4.60;2.83;;;9.80;77.80;;;;;;5077002;28;20495;-92
2022/02/27 12:59:23;;;;;;;3.20;2.73;;;10.50;75.60;;;;;;5076872;28;20441;-92
2022/02/27 13:01:54;;;;;;;6.37;3.33;;;10.30;74.20;;;;;;5076512;28;20477;-91
2022/02/27 13:04:21;;;;;;;5.47;3.17;;;;;;;;;;5076822;28;20437;-92
2022/02/27 13:06:59;;;;;;;4.00;3.17;;;9.70;77.80;;;;;;5076479;28;20445;-90
2022/02/27 13:09:26;;;;;;;3.27;2.83;;;;;;;;;;5070527;28;20446;-92
2022/02/27 13:11:55;;;;;;;5.17;2.83;;;;;;;;;;5076038;28;20456;-91
2022/02/27 13:14:24;;;;;;;4.83;2.33;;;10.10;74.70;;;;;;5076229;28;20456;-92
2022/02/27 13:16:53;;;;;;;3.80;2.90;;;9.80;77.10;;;;;;5071178;28;20935;-91
2022/02/27 13:19:30;;;;;;;4.87;2.37;;;10.00;75.30;;;;;;5075863;28;20441;-90
2022/02/27 13:21:57;;;;;;;3.10;2.77;;;;;;;;;;5075075;28;20581;-90
2022/02/27 13:24:31;;;;;;;2.40;1.83;;;9.10;77.20;;;;;;5075147;28;20434;-88
2022/02/27 13:27:02;;;;;;;5.90;2.57;;;;;;;;;;5072157;28;20487;-89
2022/02/27 13:29:31;;;;;;;4.90;2.60;;;10.00;76.20;;;;;;5065756;28;20469;-90
2022/02/27 13:31:58;;;;;;;4.93;3.07;;;;;;;;;;5061035;28;20501;-90
2022/02/27 13:34:28;;;;;;;5.57;3.03;;;9.30;76.50;;;;;;5055019;28;20508;-90
2022/02/27 13:36:55;;;;;;;3.80;3.17;;;;;;;;;;5054904;28;20454;-90
2022/02/27 13:39:36;;;;;;;4.83;2.83;;;10.50;74.60;;;;;;5051702;28;20501;-92
2022/02/27 13:42:04;;;;;;;4.10;3.30;;;10.60;74.80;;;;;;5058083;28;20544;-90
2022/02/27 13:44:33;;;;;;;4.00;3.00;;;;;;;;;;5057793;28;20447;-90
2022/02/27 13:47:00;;;;;;;3.40;2.87;;;;;;;;;;5056135;28;20457;-90
2022/02/27 13:49:27;;;;;;;4.10;2.90;;;;;;;;;;5056175;28;20446;-91
2022/02/27 13:51:54;;;;;;;6.33;3.67;;;;;;;;;;5056164;28;20466;-91
2022/02/27 13:54:23;;;;;;;3.40;2.80;;;9.80;79.90;;;;;;5057089;28;20458;-92
2022/02/27 13:57:00;;;;;;;3.60;2.13;;;;;;;;;;5054016;28;20454;-91
2022/02/27 13:59:27;;;;;;;3.20;2.70;;;;;;;;;;5056943;28;20435;-91
2022/02/27 14:02:01;;;;;;;5.07;3.33;;;8.80;82.30;;;;;;5051816;28;20502;-90
2022/02/27 14:04:28;;;;;;;3.00;2.63;;;;;;;;;;5046284;28;20483;-90
2022/02/27 14:06:55;;;;;;;5.80;3.40;;;;;;;;;;5057046;28;20437;-91
2022/02/27 14:09:22;;;;;;;7.77;3.37;;;;;;;;;;5055502;28;20802;-91
2022/02/27 14:11:49;;;;;;;4.33;2.90;;;;;;;;;;5056389;28;20446;-90
2022/02/27 14:14:16;;;;;;;5.80;3.17;;;;;;;;;;5056008;28;20442;-91
2022/02/27 14:16:44;;;;;;;4.00;2.60;;;;;;;;;;5055782;28;20976;-90
2022/02/27 14:19:22;;;;;;;4.10;2.10;;;9.80;81.90;;;;;;5052667;28;20447;-91
2022/02/27 14:21:49;;;;;;;4.13;2.47;;;;;;;;;;5054837;28;20993;-90
2022/02/27 14:24:20;;;;;;;4.10;2.37;;;9.30;82.40;;;;;;5053893;28;20462;-90
2022/02/27 14:27:01;;;;;;;3.83;2.50;;;9.10;83.90;;;;;;5051896;28;20486;-90
2022/02/27 14:29:35;;;;;;;3.40;2.60;;;10.00;81.90;;;;;;5055130;28;20830;-90